Hamaritha — PF2437 — position and weather

sailwx.info

Track history (hours):
 
Tides and Currents Weather Stations Pressure Air Temp Water Temp Dewpoint Dewpoint Depression Visibility Wind Speed Wind Dir Waves Ship Positions

Hamaritha

Last reported at 2016-Jul-22 07:32 UTC. Time now 2016-Jul-26 04:41 UTC.
Position N 51°46' E 005°10'.

Length 86 m.

Type: Ship. MMSI: 244700691.

Date/timePositionNaut miles runAvg speedWind from/ knotsBaromVisibWave heightAir tempDewpointWater temp
2016-Jul-22 07:32N 51°46' E 005°10'0 0.0
2016-Jul-22 04:32N 51°46' E 005°10'0 0.0
2016-Jul-22 03:33N 51°46' E 005°10'0 0.0
2016-Jul-22 02:32N 51°46' E 005°10'0 0.0
2016-Jul-22 01:32N 51°46' E 005°10'0 0.0
2016-Jul-22 00:33N 51°46' E 005°10'0 0.0
2016-Jul-21 23:31N 51°46' E 005°10'0 0.0
2016-Jul-21 22:33N 51°46' E 005°10'0 0.0
2016-Jul-21 21:32N 51°46' E 005°10'0 0.0
2016-Jul-21 20:32N 51°46' E 005°10'0 0.0
2016-Jul-21 19:33N 51°46' E 005°10'0 0.0
2016-Jul-21 18:33N 51°46' E 005°10'0 0.0
2016-Jul-21 17:32N 51°46' E 005°10'0 0.0
2016-Jul-21 16:34N 51°46' E 005°10'0 0.0
2016-Jul-21 15:32N 51°46' E 005°10'0 0.0
2016-Jul-21 14:31N 51°46' E 005°10'0 0.0
2016-Jul-21 13:32N 51°46' E 005°10'0 0.0
2016-Jul-21 12:33N 51°46' E 005°10'0 0.0
2016-Jul-21 11:33N 51°46' E 005°10'0 0.0
2016-Jul-21 10:32N 51°46' E 005°10'0 0.0
2016-Jul-21 09:32N 51°46' E 005°10'0 0.0
2016-Jul-21 08:32N 51°46' E 005°10'0 0.0
2016-Jul-21 07:33N 51°46' E 005°10'0 0.0
2016-Jul-21 06:32N 51°46' E 005°10'0 0.0
2016-Jul-21 05:30N 51°46' E 005°10'0 0.0
2016-Jul-21 04:32N 51°46' E 005°10'0 0.0
2016-Jul-21 03:31N 51°46' E 005°10'0 0.0
2016-Jul-21 02:32N 51°46' E 005°10'0 0.0
2016-Jul-21 01:33N 51°46' E 005°10'0 0.0
2016-Jul-21 00:32N 51°46' E 005°10'0 0.0
2016-Jul-20 23:29N 51°46' E 005°10'0 0.0
2016-Jul-20 22:31N 51°46' E 005°10'0 0.0
2016-Jul-20 21:32N 51°46' E 005°10'0 0.0
2016-Jul-20 20:32N 51°46' E 005°10'0 0.0
2016-Jul-20 19:33N 51°46' E 005°10'0 0.0
2016-Jul-20 18:32N 51°46' E 005°10'0 0.0
2016-Jul-20 17:31N 51°46' E 005°10'0 0.0
2016-Jul-20 16:33N 51°46' E 005°10'0 0.0
2016-Jul-20 15:30N 51°46' E 005°10'0 0.0
2016-Jul-20 14:32N 51°46' E 005°10'0 0.0
2016-Jul-20 13:32N 51°46' E 005°10'0 0.0
2016-Jul-20 12:32N 51°46' E 005°10'2 1.8
2016-Jul-20 11:29N 51°45' E 005°08'9 6.5
2016-Jul-20 10:10N 51°43' E 004°54'5 7.5
2016-Jul-20 09:33N 51°43' E 004°46'5 5.3
2016-Jul-20 08:31N 51°43' E 004°38'2 1.8
2016-Jul-20 07:33N 51°42' E 004°35'7 6.6
2016-Jul-20 06:33N 51°41' E 004°24'6 6.1
2016-Jul-20 05:33N 51°38' E 004°16'7 6.6
2016-Jul-20 04:34N 51°32' E 004°14'7 6.8
2016-Jul-20 03:30N 51°25' E 004°14'4 4.7
2016-Jul-20 02:34N 51°21' E 004°18'0 0.0
2016-Jul-20 01:34N 51°21' E 004°18'0 0.0
2016-Jul-20 00:33N 51°21' E 004°18'0 0.0
2016-Jul-19 23:34N 51°21' E 004°18'0 0.0
2016-Jul-19 22:34N 51°21' E 004°18'0 0.0
2016-Jul-19 21:34N 51°21' E 004°18'0 0.2
2016-Jul-19 20:33N 51°21' E 004°18'7 7.4
2016-Jul-19 19:34N 51°14' E 004°24'2 1.9
2016-Jul-19 18:34N 51°13' E 004°23'7 6.8
2016-Jul-19 17:33N 51°06' E 004°20'0 0.0
2016-Jul-19 16:33N 51°06' E 004°20'0 0.0
2016-Jul-19 15:32N 51°06' E 004°20'0 0.0
2016-Jul-19 14:33N 51°06' E 004°20'0 0.0
2016-Jul-19 13:33N 51°06' E 004°20'2 2.2
2016-Jul-19 12:33N 51°08' E 004°20'3 2.9
2016-Jul-19 11:34N 51°11' E 004°20'4 4.2
2016-Jul-19 10:34N 51°14' E 004°24'0 0.2
2016-Jul-19 09:34N 51°15' E 004°24'1 0.8
2016-Jul-19 08:33N 51°15' E 004°23'6 5.7
2016-Jul-19 07:33N 51°20' E 004°18'15 5.2
2016-Jul-19 04:33N 51°35' E 004°12'6 5.8
2016-Jul-19 03:31N 51°39' E 004°19'1 1.0
2016-Jul-19 02:31N 51°39' E 004°20'0 0.0
2016-Jul-19 01:30N 51°39' E 004°20'0 0.0
2016-Jul-19 00:34N 51°39' E 004°20'0 0.0
2016-Jul-18 23:31N 51°39' E 004°20'0 0.0
2016-Jul-18 22:31N 51°39' E 004°20'0 0.0
2016-Jul-18 21:33N 51°39' E 004°20'0 0.1
2016-Jul-18 20:29N 51°39' E 004°20'6 2.9
2016-Jul-18 18:31N 51°42' E 004°28'6 6.7
2016-Jul-18 17:34N 51°43' E 004°39'7 7.0
2016-Jul-18 16:33N 51°48' E 004°47'8 7.3
2016-Jul-18 15:31N 51°49' E 004°59'9 8.0
2016-Jul-18 14:27N 51°49' E 005°13'7 7.4
2016-Jul-18 13:33N 51°50' E 005°23'11 7.9
2016-Jul-18 12:09N 51°54' E 005°40'5 8.8
2016-Jul-18 11:33N 51°52' E 005°49'20 0.5
2016-Jul-16 17:20N 51°47' E 006°19'20 0.7
2016-Jul-15 14:32N 51°52' E 005°49'7 6.4
2016-Jul-15 13:30N 51°54' E 005°39'11 5.8
2016-Jul-15 11:33N 51°49' E 005°22'1 1.1
2016-Jul-15 10:33N 51°48' E 005°22'3 3.2
2016-Jul-15 09:33N 51°45' E 005°20'6 6.5
2016-Jul-15 08:33N 51°44' E 005°09'7 7.1
2016-Jul-15 07:32N 51°43' E 004°57'7 7.5
2016-Jul-15 06:33N 51°43' E 004°46'8 8.0
2016-Jul-15 05:31N 51°42' E 004°32'5 4.3
2016-Jul-15 04:20N 51°41' E 004°24'2 2.8
2016-Jul-15 03:29N 51°39' E 004°22'0 0.0
2016-Jul-15 02:32N 51°39' E 004°22'0 0.0
2016-Jul-15 01:31N 51°39' E 004°22'0 0.0
2016-Jul-15 00:24N 51°39' E 004°22'0 0.0
2016-Jul-14 23:33N 51°39' E 004°22'0 0.0
2016-Jul-14 22:29N 51°39' E 004°22'0 0.0
2016-Jul-14 21:33N 51°39' E 004°22'3 2.4
2016-Jul-14 20:07N 51°39' E 004°16'4 7.4
2016-Jul-14 19:33N 51°36' E 004°12'8 7.7
2016-Jul-14 18:33N 51°28' E 004°14'4 3.9
2016-Jul-14 17:33N 51°24' E 004°14'7 7.5
2016-Jul-14 16:34N 51°18' E 004°20'4 4.1
2016-Jul-14 15:34N 51°14' E 004°24'5 4.7
2016-Jul-14 14:33N 51°11' E 004°20'5 4.5
2016-Jul-14 13:33N 51°06' E 004°20'0 0.0
2016-Jul-14 12:29N 51°06' E 004°20'0 0.0
2016-Jul-14 11:32N 51°06' E 004°20'0 0.0
2016-Jul-14 10:33N 51°06' E 004°20'1 1.4
2016-Jul-14 09:33N 51°08' E 004°19'1 0.9
2016-Jul-14 08:31N 51°08' E 004°20'2 2.3
2016-Jul-14 07:33N 51°11' E 004°20'5 4.8
2016-Jul-14 06:34N 51°14' E 004°24'1 0.7
2016-Jul-14 05:33N 51°15' E 004°23'4 4.1
2016-Jul-14 04:33N 51°18' E 004°19'6 5.6
2016-Jul-14 03:33N 51°23' E 004°15'3 2.8
2016-Jul-14 02:26N 51°26' E 004°14'0 0.0
2016-Jul-14 01:33N 51°26' E 004°14'0 0.0
2016-Jul-14 00:26N 51°26' E 004°14'0 0.0
2016-Jul-13 23:28N 51°26' E 004°14'0 0.0
2016-Jul-13 22:31N 51°26' E 004°14'2 2.3
2016-Jul-13 21:32N 51°28' E 004°13'14 5.8
2016-Jul-13 19:04N 51°41' E 004°23'2 3.6
2016-Jul-13 18:29N 51°42' E 004°26'7 7.2
2016-Jul-13 17:33N 51°43' E 004°37'7 7.3
2016-Jul-13 16:33N 51°47' E 004°46'7 7.4
2016-Jul-13 15:33N 51°50' E 004°57'11 8.2
2016-Jul-13 14:11N 51°49' E 005°16'4 7.0
2016-Jul-13 13:33N 51°50' E 005°23'11 8.0
2016-Jul-13 12:13N 51°54' E 005°39'6 8.8
2016-Jul-13 11:33N 51°53' E 005°48'28 1.7
2016-Jul-12 19:25N 51°40' E 006°29'7 8.4
2016-Jul-12 18:32N 51°34' E 006°36'20 3.7
2016-Jul-12 13:14N 51°33' E 007°08'2 2.3
2016-Jul-12 12:33N 51°33' E 007°10'3 2.4
2016-Jul-12 11:17N 51°34' E 007°15'2 2.1
2016-Jul-12 10:25N 51°35' E 007°17'1 0.9
2016-Jul-12 09:33N 51°36' E 007°18'0 0.0
2016-Jul-12 08:33N 51°36' E 007°18'0 0.0
2016-Jul-12 07:33N 51°36' E 007°18'  
Track history (hours):
 
Tides and Currents Weather Stations Pressure Air Temp Water Temp Dewpoint Dewpoint Depression Visibility Wind Speed Wind Dir Waves Ship Positions

Hamaritha

Last reported at 2016-Jul-22 07:32 UTC. Time now 2016-Jul-26 04:41 UTC.
Position N 51°46' E 005°10'.

Length 86 m.

Type: Ship. MMSI: 244700691.

Date/timePositionNaut miles runAvg speedWind from/ knotsBaromVisibWave heightAir tempDewpointWater temp
2016-Jul-22 07:32N 51°46' E 005°10'0 0.0
2016-Jul-22 04:32N 51°46' E 005°10'0 0.0
2016-Jul-22 03:33N 51°46' E 005°10'0 0.0
2016-Jul-22 02:32N 51°46' E 005°10'0 0.0
2016-Jul-22 01:32N 51°46' E 005°10'0 0.0
2016-Jul-22 00:33N 51°46' E 005°10'0 0.0
2016-Jul-21 23:31N 51°46' E 005°10'0 0.0
2016-Jul-21 22:33N 51°46' E 005°10'0 0.0
2016-Jul-21 21:32N 51°46' E 005°10'0 0.0
2016-Jul-21 20:32N 51°46' E 005°10'0 0.0
2016-Jul-21 19:33N 51°46' E 005°10'0 0.0
2016-Jul-21 18:33N 51°46' E 005°10'0 0.0
2016-Jul-21 17:32N 51°46' E 005°10'0 0.0
2016-Jul-21 16:34N 51°46' E 005°10'0 0.0
2016-Jul-21 15:32N 51°46' E 005°10'0 0.0
2016-Jul-21 14:31N 51°46' E 005°10'0 0.0
2016-Jul-21 13:32N 51°46' E 005°10'0 0.0
2016-Jul-21 12:33N 51°46' E 005°10'0 0.0
2016-Jul-21 11:33N 51°46' E 005°10'0 0.0
2016-Jul-21 10:32N 51°46' E 005°10'0 0.0
2016-Jul-21 09:32N 51°46' E 005°10'0 0.0
2016-Jul-21 08:32N 51°46' E 005°10'0 0.0
2016-Jul-21 07:33N 51°46' E 005°10'0 0.0
2016-Jul-21 06:32N 51°46' E 005°10'0 0.0
2016-Jul-21 05:30N 51°46' E 005°10'0 0.0
2016-Jul-21 04:32N 51°46' E 005°10'0 0.0
2016-Jul-21 03:31N 51°46' E 005°10'0 0.0
2016-Jul-21 02:32N 51°46' E 005°10'0 0.0
2016-Jul-21 01:33N 51°46' E 005°10'0 0.0
2016-Jul-21 00:32N 51°46' E 005°10'0 0.0
2016-Jul-20 23:29N 51°46' E 005°10'0 0.0
2016-Jul-20 22:31N 51°46' E 005°10'0 0.0
2016-Jul-20 21:32N 51°46' E 005°10'0 0.0
2016-Jul-20 20:32N 51°46' E 005°10'0 0.0
2016-Jul-20 19:33N 51°46' E 005°10'0 0.0
2016-Jul-20 18:32N 51°46' E 005°10'0 0.0
2016-Jul-20 17:31N 51°46' E 005°10'0 0.0
2016-Jul-20 16:33N 51°46' E 005°10'0 0.0
2016-Jul-20 15:30N 51°46' E 005°10'0 0.0
2016-Jul-20 14:32N 51°46' E 005°10'0 0.0
2016-Jul-20 13:32N 51°46' E 005°10'0 0.0
2016-Jul-20 12:32N 51°46' E 005°10'2 1.8
2016-Jul-20 11:29N 51°45' E 005°08'9 6.5
2016-Jul-20 10:10N 51°43' E 004°54'5 7.5
2016-Jul-20 09:33N 51°43' E 004°46'5 5.3
2016-Jul-20 08:31N 51°43' E 004°38'2 1.8
2016-Jul-20 07:33N 51°42' E 004°35'7 6.6
2016-Jul-20 06:33N 51°41' E 004°24'6 6.1
2016-Jul-20 05:33N 51°38' E 004°16'7 6.6
2016-Jul-20 04:34N 51°32' E 004°14'7 6.8
2016-Jul-20 03:30N 51°25' E 004°14'4 4.7
2016-Jul-20 02:34N 51°21' E 004°18'0 0.0
2016-Jul-20 01:34N 51°21' E 004°18'0 0.0
2016-Jul-20 00:33N 51°21' E 004°18'0 0.0
2016-Jul-19 23:34N 51°21' E 004°18'0 0.0
2016-Jul-19 22:34N 51°21' E 004°18'0 0.0
2016-Jul-19 21:34N 51°21' E 004°18'0 0.2
2016-Jul-19 20:33N 51°21' E 004°18'7 7.4
2016-Jul-19 19:34N 51°14' E 004°24'2 1.9
2016-Jul-19 18:34N 51°13' E 004°23'7 6.8
2016-Jul-19 17:33N 51°06' E 004°20'0 0.0
2016-Jul-19 16:33N 51°06' E 004°20'0 0.0
2016-Jul-19 15:32N 51°06' E 004°20'0 0.0
2016-Jul-19 14:33N 51°06' E 004°20'0 0.0
2016-Jul-19 13:33N 51°06' E 004°20'2 2.2
2016-Jul-19 12:33N 51°08' E 004°20'3 2.9
2016-Jul-19 11:34N 51°11' E 004°20'4 4.2
2016-Jul-19 10:34N 51°14' E 004°24'0 0.2
2016-Jul-19 09:34N 51°15' E 004°24'1 0.8
2016-Jul-19 08:33N 51°15' E 004°23'6 5.7
2016-Jul-19 07:33N 51°20' E 004°18'15 5.2
2016-Jul-19 04:33N 51°35' E 004°12'6 5.8
2016-Jul-19 03:31N 51°39' E 004°19'1 1.0
2016-Jul-19 02:31N 51°39' E 004°20'0 0.0
2016-Jul-19 01:30N 51°39' E 004°20'0 0.0
2016-Jul-19 00:34N 51°39' E 004°20'0 0.0
2016-Jul-18 23:31N 51°39' E 004°20'0 0.0
2016-Jul-18 22:31N 51°39' E 004°20'0 0.0
2016-Jul-18 21:33N 51°39' E 004°20'0 0.1
2016-Jul-18 20:29N 51°39' E 004°20'6 2.9
2016-Jul-18 18:31N 51°42' E 004°28'6 6.7
2016-Jul-18 17:34N 51°43' E 004°39'7 7.0
2016-Jul-18 16:33N 51°48' E 004°47'8 7.3
2016-Jul-18 15:31N 51°49' E 004°59'9 8.0
2016-Jul-18 14:27N 51°49' E 005°13'7 7.4
2016-Jul-18 13:33N 51°50' E 005°23'11 7.9
2016-Jul-18 12:09N 51°54' E 005°40'5 8.8
2016-Jul-18 11:33N 51°52' E 005°49'20 0.5
2016-Jul-16 17:20N 51°47' E 006°19'20 0.7
2016-Jul-15 14:32N 51°52' E 005°49'7 6.4
2016-Jul-15 13:30N 51°54' E 005°39'11 5.8
2016-Jul-15 11:33N 51°49' E 005°22'1 1.1
2016-Jul-15 10:33N 51°48' E 005°22'3 3.2
2016-Jul-15 09:33N 51°45' E 005°20'6 6.5
2016-Jul-15 08:33N 51°44' E 005°09'7 7.1
2016-Jul-15 07:32N 51°43' E 004°57'7 7.5
2016-Jul-15 06:33N 51°43' E 004°46'8 8.0
2016-Jul-15 05:31N 51°42' E 004°32'5 4.3
2016-Jul-15 04:20N 51°41' E 004°24'2 2.8
2016-Jul-15 03:29N 51°39' E 004°22'0 0.0
2016-Jul-15 02:32N 51°39' E 004°22'0 0.0
2016-Jul-15 01:31N 51°39' E 004°22'0 0.0
2016-Jul-15 00:24N 51°39' E 004°22'0 0.0
2016-Jul-14 23:33N 51°39' E 004°22'0 0.0
2016-Jul-14 22:29N 51°39' E 004°22'0 0.0
2016-Jul-14 21:33N 51°39' E 004°22'3 2.4
2016-Jul-14 20:07N 51°39' E 004°16'4 7.4
2016-Jul-14 19:33N 51°36' E 004°12'8 7.7
2016-Jul-14 18:33N 51°28' E 004°14'4 3.9
2016-Jul-14 17:33N 51°24' E 004°14'7 7.5
2016-Jul-14 16:34N 51°18' E 004°20'4 4.1
2016-Jul-14 15:34N 51°14' E 004°24'5 4.7
2016-Jul-14 14:33N 51°11' E 004°20'5 4.5
2016-Jul-14 13:33N 51°06' E 004°20'0 0.0
2016-Jul-14 12:29N 51°06' E 004°20'0 0.0
2016-Jul-14 11:32N 51°06' E 004°20'0 0.0
2016-Jul-14 10:33N 51°06' E 004°20'1 1.4
2016-Jul-14 09:33N 51°08' E 004°19'1 0.9
2016-Jul-14 08:31N 51°08' E 004°20'2 2.3
2016-Jul-14 07:33N 51°11' E 004°20'5 4.8
2016-Jul-14 06:34N 51°14' E 004°24'1 0.7
2016-Jul-14 05:33N 51°15' E 004°23'4 4.1
2016-Jul-14 04:33N 51°18' E 004°19'6 5.6
2016-Jul-14 03:33N 51°23' E 004°15'3 2.8
2016-Jul-14 02:26N 51°26' E 004°14'0 0.0
2016-Jul-14 01:33N 51°26' E 004°14'0 0.0
2016-Jul-14 00:26N 51°26' E 004°14'0 0.0
2016-Jul-13 23:28N 51°26' E 004°14'0 0.0
2016-Jul-13 22:31N 51°26' E 004°14'2 2.3
2016-Jul-13 21:32N 51°28' E 004°13'14 5.8
2016-Jul-13 19:04N 51°41' E 004°23'2 3.6
2016-Jul-13 18:29N 51°42' E 004°26'7 7.2
2016-Jul-13 17:33N 51°43' E 004°37'7 7.3
2016-Jul-13 16:33N 51°47' E 004°46'7 7.4
2016-Jul-13 15:33N 51°50' E 004°57'11 8.2
2016-Jul-13 14:11N 51°49' E 005°16'4 7.0
2016-Jul-13 13:33N 51°50' E 005°23'11 8.0
2016-Jul-13 12:13N 51°54' E 005°39'6 8.8
2016-Jul-13 11:33N 51°53' E 005°48'28 1.7
2016-Jul-12 19:25N 51°40' E 006°29'7 8.4
2016-Jul-12 18:32N 51°34' E 006°36'20 3.7
2016-Jul-12 13:14N 51°33' E 007°08'2 2.3
2016-Jul-12 12:33N 51°33' E 007°10'3 2.4
2016-Jul-12 11:17N 51°34' E 007°15'2 2.1
2016-Jul-12 10:25N 51°35' E 007°17'1 0.9
2016-Jul-12 09:33N 51°36' E 007°18'0 0.0
2016-Jul-12 08:33N 51°36' E 007°18'0 0.0
2016-Jul-12 07:33N 51°36' E 007°18'  

Dump ship's entire track history